Rechercher aéroport 
image banner adimage banner adimage banner ad
image banner ad

5CA8 - Howard /Private/

Situé à Ione, United States

ICAO - 5CA8, IATA -

Données fournies par Airmate  

Information générale

Coordonnées: N38°15'23" W120°55'54"
Élévation : 480 feet MSL.
Variation magnétique : 16° East
Voir autres Aéroports à California

Données opérationnelles

Special qualification required
Heure actuelle UTC:
Heure actuelle locale:
METAR: KJAQ 251655Z AUTO 28004KT 10SM CLR 27/05 A2996 RMK AO1 T02670053
Voir NOTAMs / SUP AIP / TFR affectant cet aéroport [VIEW]
Fréquences de communication: [VIEW]

Pistes:

Identifiant RWYQFULongueur (ft)Largeur (ft)SurfaceLDA (ft)
07148140EARTH
25148140EARTH

Coordonnées de l'aéroport

Adresse: Ione United States

Vue satellite de 5CA8